sensor_id;sensor_type;location;lat;lon;timestamp;temperature;humidity
39095;DHT22;24840;47.508;19.376;2023-09-19T00:01:42;21.90;91.90
39095;DHT22;24840;47.508;19.376;2023-09-19T00:04:13;21.90;91.90
39095;DHT22;24840;47.508;19.376;2023-09-19T00:06:40;21.90;92.00
39095;DHT22;24840;47.508;19.376;2023-09-19T00:09:06;21.80;92.10
39095;DHT22;24840;47.508;19.376;2023-09-19T00:11:37;21.70;92.20
39095;DHT22;24840;47.508;19.376;2023-09-19T00:14:04;21.80;92.20
39095;DHT22;24840;47.508;19.376;2023-09-19T00:16:30;21.70;92.20
39095;DHT22;24840;47.508;19.376;2023-09-19T00:18:58;21.70;92.20
39095;DHT22;24840;47.508;19.376;2023-09-19T00:21:24;21.70;92.60
39095;DHT22;24840;47.508;19.376;2023-09-19T00:23:50;21.60;92.40
39095;DHT22;24840;47.508;19.376;2023-09-19T00:26:18;21.60;92.60
39095;DHT22;24840;47.508;19.376;2023-09-19T00:28:43;21.60;92.40
39095;DHT22;24840;47.508;19.376;2023-09-19T00:31:09;21.60;92.60
39095;DHT22;24840;47.508;19.376;2023-09-19T00:33:35;21.60;92.60
39095;DHT22;24840;47.508;19.376;2023-09-19T00:36:02;21.50;92.80
39095;DHT22;24840;47.508;19.376;2023-09-19T00:38:30;21.50;92.90
39095;DHT22;24840;47.508;19.376;2023-09-19T00:40:57;21.40;93.00
39095;DHT22;24840;47.508;19.376;2023-09-19T00:43:25;21.40;93.00
39095;DHT22;24840;47.508;19.376;2023-09-19T00:45:56;21.40;93.00
39095;DHT22;24840;47.508;19.376;2023-09-19T00:48:22;21.40;93.00
39095;DHT22;24840;47.508;19.376;2023-09-19T00:50:54;21.40;93.10
39095;DHT22;24840;47.508;19.376;2023-09-19T00:53:23;21.30;93.10
39095;DHT22;24840;47.508;19.376;2023-09-19T00:55:51;21.30;93.40
39095;DHT22;24840;47.508;19.376;2023-09-19T00:58:18;21.30;93.30
39095;DHT22;24840;47.508;19.376;2023-09-19T01:00:44;21.30;93.30
39095;DHT22;24840;47.508;19.376;2023-09-19T01:03:11;21.30;93.40
39095;DHT22;24840;47.508;19.376;2023-09-19T01:05:39;21.30;93.40
39095;DHT22;24840;47.508;19.376;2023-09-19T01:08:05;21.30;93.40
39095;DHT22;24840;47.508;19.376;2023-09-19T01:10:33;21.20;93.50
39095;DHT22;24840;47.508;19.376;2023-09-19T01:16:09;21.20;93.80
39095;DHT22;24840;47.508;19.376;2023-09-19T01:18:47;21.20;93.60
39095;DHT22;24840;47.508;19.376;2023-09-19T01:21:26;21.20;93.60
39095;DHT22;24840;47.508;19.376;2023-09-19T01:29:42;21.10;94.10
39095;DHT22;24840;47.508;19.376;2023-09-19T01:32:11;21.10;94.00
39095;DHT22;24840;47.508;19.376;2023-09-19T01:34:55;21.10;94.10
39095;DHT22;24840;47.508;19.376;2023-09-19T01:37:30;21.10;94.10
39095;DHT22;24840;47.508;19.376;2023-09-19T01:40:06;21.10;94.20
39095;DHT22;24840;47.508;19.376;2023-09-19T01:51:00;21.10;94.40
39095;DHT22;24840;47.508;19.376;2023-09-19T01:56:20;21.10;94.60
39095;DHT22;24840;47.508;19.376;2023-09-19T01:58:54;21.10;94.60
39095;DHT22;24840;47.508;19.376;2023-09-19T02:01:23;21.10;94.60
39095;DHT22;24840;47.508;19.376;2023-09-19T02:03:50;21.10;94.70
39095;DHT22;24840;47.508;19.376;2023-09-19T02:06:18;21.10;94.70
39095;DHT22;24840;47.508;19.376;2023-09-19T02:08:45;21.00;94.80
39095;DHT22;24840;47.508;19.376;2023-09-19T02:11:11;21.00;95.00
39095;DHT22;24840;47.508;19.376;2023-09-19T02:13:38;21.00;95.30
39095;DHT22;24840;47.508;19.376;2023-09-19T02:16:05;20.90;95.30
39095;DHT22;24840;47.508;19.376;2023-09-19T02:18:31;20.90;95.30
39095;DHT22;24840;47.508;19.376;2023-09-19T02:21:01;20.80;95.60
39095;DHT22;24840;47.508;19.376;2023-09-19T02:23:28;20.90;95.40
39095;DHT22;24840;47.508;19.376;2023-09-19T02:25:56;20.90;95.40
39095;DHT22;24840;47.508;19.376;2023-09-19T02:28:26;20.90;95.40
39095;DHT22;24840;47.508;19.376;2023-09-19T02:30:56;20.80;95.80
39095;DHT22;24840;47.508;19.376;2023-09-19T02:33:22;20.90;95.70
39095;DHT22;24840;47.508;19.376;2023-09-19T02:35:47;20.80;95.90
39095;DHT22;24840;47.508;19.376;2023-09-19T02:38:14;20.90;95.70
39095;DHT22;24840;47.508;19.376;2023-09-19T02:40:43;20.80;95.90
39095;DHT22;24840;47.508;19.376;2023-09-19T02:43:09;20.80;95.60
39095;DHT22;24840;47.508;19.376;2023-09-19T02:45:35;20.80;95.90
39095;DHT22;24840;47.508;19.376;2023-09-19T02:48:01;20.80;95.80
39095;DHT22;24840;47.508;19.376;2023-09-19T02:50:27;20.80;95.90
39095;DHT22;24840;47.508;19.376;2023-09-19T02:52:53;20.70;96.50
39095;DHT22;24840;47.508;19.376;2023-09-19T02:55:19;20.70;96.30
39095;DHT22;24840;47.508;19.376;2023-09-19T02:57:51;20.70;96.40
39095;DHT22;24840;47.508;19.376;2023-09-19T03:00:19;20.70;96.40
39095;DHT22;24840;47.508;19.376;2023-09-19T03:02:52;20.60;96.70
39095;DHT22;24840;47.508;19.376;2023-09-19T03:05:26;20.60;96.60
39095;DHT22;24840;47.508;19.376;2023-09-19T03:07:57;20.60;96.50
39095;DHT22;24840;47.508;19.376;2023-09-19T03:10:26;20.60;96.60
39095;DHT22;24840;47.508;19.376;2023-09-19T03:12:52;20.60;97.10
39095;DHT22;24840;47.508;19.376;2023-09-19T03:15:17;20.50;97.10
39095;DHT22;24840;47.508;19.376;2023-09-19T03:17:47;20.50;97.10
39095;DHT22;24840;47.508;19.376;2023-09-19T03:20:14;20.40;97.40
39095;DHT22;24840;47.508;19.376;2023-09-19T03:22:43;20.40;97.10
39095;DHT22;24840;47.508;19.376;2023-09-19T03:25:11;20.50;97.00
39095;DHT22;24840;47.508;19.376;2023-09-19T03:27:40;20.40;97.20
39095;DHT22;24840;47.508;19.376;2023-09-19T03:30:06;20.30;98.30
39095;DHT22;24840;47.508;19.376;2023-09-19T03:32:36;20.20;97.80
39095;DHT22;24840;47.508;19.376;2023-09-19T03:35:03;20.30;97.80
39095;DHT22;24840;47.508;19.376;2023-09-19T03:37:31;20.30;97.60
39095;DHT22;24840;47.508;19.376;2023-09-19T03:39:58;20.30;97.70
39095;DHT22;24840;47.508;19.376;2023-09-19T03:42:24;20.30;97.90
39095;DHT22;24840;47.508;19.376;2023-09-19T03:44:54;20.20;98.00
39095;DHT22;24840;47.508;19.376;2023-09-19T03:47:20;20.20;97.80
39095;DHT22;24840;47.508;19.376;2023-09-19T03:49:46;20.20;98.10
39095;DHT22;24840;47.508;19.376;2023-09-19T03:52:12;20.20;98.00
39095;DHT22;24840;47.508;19.376;2023-09-19T03:54:37;20.20;97.90
39095;DHT22;24840;47.508;19.376;2023-09-19T03:57:11;20.10;98.20
39095;DHT22;24840;47.508;19.376;2023-09-19T03:59:41;20.00;98.40
39095;DHT22;24840;47.508;19.376;2023-09-19T04:02:08;19.90;99.10
39095;DHT22;24840;47.508;19.376;2023-09-19T04:04:47;19.80;99.20
39095;DHT22;24840;47.508;19.376;2023-09-19T04:07:13;19.80;99.10
39095;DHT22;24840;47.508;19.376;2023-09-19T04:09:39;19.90;99.40
39095;DHT22;24840;47.508;19.376;2023-09-19T04:12:05;19.80;99.80
39095;DHT22;24840;47.508;19.376;2023-09-19T04:14:31;19.70;99.80
39095;DHT22;24840;47.508;19.376;2023-09-19T04:16:56;19.60;99.90
39095;DHT22;24840;47.508;19.376;2023-09-19T04:19:22;19.50;99.90
39095;DHT22;24840;47.508;19.376;2023-09-19T04:21:48;19.40;99.90
39095;DHT22;24840;47.508;19.376;2023-09-19T04:24:13;19.50;99.90
39095;DHT22;24840;47.508;19.376;2023-09-19T04:26:39;19.40;99.90
39095;DHT22;24840;47.508;19.376;2023-09-19T04:29:05;19.50;99.90
39095;DHT22;24840;47.508;19.376;2023-09-19T04:31:31;19.50;99.90
39095;DHT22;24840;47.508;19.376;2023-09-19T04:33:57;19.40;99.90
39095;DHT22;24840;47.508;19.376;2023-09-19T04:36:24;19.40;99.90
39095;DHT22;24840;47.508;19.376;2023-09-19T04:38:50;19.30;99.90
39095;DHT22;24840;47.508;19.376;2023-09-19T04:41:16;19.30;99.90
39095;DHT22;24840;47.508;19.376;2023-09-19T04:43:42;19.40;99.90
39095;DHT22;24840;47.508;19.376;2023-09-19T04:46:08;19.40;99.90
39095;DHT22;24840;47.508;19.376;2023-09-19T04:48:34;19.40;99.90
39095;DHT22;24840;47.508;19.376;2023-09-19T04:51:00;19.50;99.90
39095;DHT22;24840;47.508;19.376;2023-09-19T04:53:26;19.50;99.90
39095;DHT22;24840;47.508;19.376;2023-09-19T04:55:53;19.50;99.90
39095;DHT22;24840;47.508;19.376;2023-09-19T04:58:21;19.50;99.90
39095;DHT22;24840;47.508;19.376;2023-09-19T05:00:47;19.60;99.90
39095;DHT22;24840;47.508;19.376;2023-09-19T05:03:13;19.60;99.90
39095;DHT22;24840;47.508;19.376;2023-09-19T05:05:39;19.60;99.90
39095;DHT22;24840;47.508;19.376;2023-09-19T05:08:06;19.60;99.90
39095;DHT22;24840;47.508;19.376;2023-09-19T05:10:34;19.70;99.90
39095;DHT22;24840;47.508;19.376;2023-09-19T05:13:04;19.80;99.90
39095;DHT22;24840;47.508;19.376;2023-09-19T05:15:31;19.80;99.90
39095;DHT22;24840;47.508;19.376;2023-09-19T05:17:57;19.80;99.90
39095;DHT22;24840;47.508;19.376;2023-09-19T05:20:23;19.90;99.90
39095;DHT22;24840;47.508;19.376;2023-09-19T05:23:07;19.90;99.90
39095;DHT22;24840;47.508;19.376;2023-09-19T05:25:35;19.90;99.90
39095;DHT22;24840;47.508;19.376;2023-09-19T05:28:09;19.90;99.90
39095;DHT22;24840;47.508;19.376;2023-09-19T05:30:36;19.90;99.90
39095;DHT22;24840;47.508;19.376;2023-09-19T05:33:04;20.00;99.90
39095;DHT22;24840;47.508;19.376;2023-09-19T05:35:31;20.00;99.90
39095;DHT22;24840;47.508;19.376;2023-09-19T05:37:57;20.00;99.90
39095;DHT22;24840;47.508;19.376;2023-09-19T05:40:25;20.00;99.90
39095;DHT22;24840;47.508;19.376;2023-09-19T05:42:51;20.00;99.90
39095;DHT22;24840;47.508;19.376;2023-09-19T05:45:17;20.00;99.90
39095;DHT22;24840;47.508;19.376;2023-09-19T05:47:50;20.00;99.90
39095;DHT22;24840;47.508;19.376;2023-09-19T05:50:17;20.00;99.90
39095;DHT22;24840;47.508;19.376;2023-09-19T05:52:50;20.10;99.90
39095;DHT22;24840;47.508;19.376;2023-09-19T05:55:18;20.10;99.90
39095;DHT22;24840;47.508;19.376;2023-09-19T05:57:52;20.10;99.90
39095;DHT22;24840;47.508;19.376;2023-09-19T06:00:22;20.10;99.90
39095;DHT22;24840;47.508;19.376;2023-09-19T06:02:56;20.10;99.90
39095;DHT22;24840;47.508;19.376;2023-09-19T06:05:26;20.10;99.90
39095;DHT22;24840;47.508;19.376;2023-09-19T06:07:53;20.10;99.90
39095;DHT22;24840;47.508;19.376;2023-09-19T06:10:25;20.20;99.90
39095;DHT22;24840;47.508;19.376;2023-09-19T06:12:51;20.20;99.90
39095;DHT22;24840;47.508;19.376;2023-09-19T06:15:18;20.20;99.90
39095;DHT22;24840;47.508;19.376;2023-09-19T06:17:54;20.20;99.90
39095;DHT22;24840;47.508;19.376;2023-09-19T06:20:21;20.20;99.90
39095;DHT22;24840;47.508;19.376;2023-09-19T06:22:49;20.20;99.90
39095;DHT22;24840;47.508;19.376;2023-09-19T06:25:16;20.20;99.90
39095;DHT22;24840;47.508;19.376;2023-09-19T06:27:49;20.20;99.90
39095;DHT22;24840;47.508;19.376;2023-09-19T06:30:18;20.20;99.90
39095;DHT22;24840;47.508;19.376;2023-09-19T06:32:46;20.20;99.90
39095;DHT22;24840;47.508;19.376;2023-09-19T06:35:14;20.10;99.90
39095;DHT22;24840;47.508;19.376;2023-09-19T06:37:42;20.00;99.90
39095;DHT22;24840;47.508;19.376;2023-09-19T06:40:12;20.00;99.90
39095;DHT22;24840;47.508;19.376;2023-09-19T06:42:50;20.00;99.90
39095;DHT22;24840;47.508;19.376;2023-09-19T06:45:16;20.00;99.90
39095;DHT22;24840;47.508;19.376;2023-09-19T06:47:50;20.00;99.90
39095;DHT22;24840;47.508;19.376;2023-09-19T06:50:19;19.80;99.90
39095;DHT22;24840;47.508;19.376;2023-09-19T06:52:47;19.60;99.90
39095;DHT22;24840;47.508;19.376;2023-09-19T06:55:19;19.40;99.90
39095;DHT22;24840;47.508;19.376;2023-09-19T06:57:48;19.30;99.90
39095;DHT22;24840;47.508;19.376;2023-09-19T07:00:15;19.40;99.90
39095;DHT22;24840;47.508;19.376;2023-09-19T07:02:57;19.40;99.90
39095;DHT22;24840;47.508;19.376;2023-09-19T07:05:24;19.30;99.90
39095;DHT22;24840;47.508;19.376;2023-09-19T07:07:50;19.30;99.90
39095;DHT22;24840;47.508;19.376;2023-09-19T07:10:18;19.30;99.90
39095;DHT22;24840;47.508;19.376;2023-09-19T07:12:45;19.10;99.90
39095;DHT22;24840;47.508;19.376;2023-09-19T07:15:11;19.10;99.90
39095;DHT22;24840;47.508;19.376;2023-09-19T07:17:37;19.10;99.90
39095;DHT22;24840;47.508;19.376;2023-09-19T07:20:03;19.20;99.90
39095;DHT22;24840;47.508;19.376;2023-09-19T07:22:35;19.10;99.90
39095;DHT22;24840;47.508;19.376;2023-09-19T07:25:04;19.10;99.90
39095;DHT22;24840;47.508;19.376;2023-09-19T07:27:30;19.10;99.90
39095;DHT22;24840;47.508;19.376;2023-09-19T07:29:59;19.20;99.90
39095;DHT22;24840;47.508;19.376;2023-09-19T07:32:25;19.00;99.90
39095;DHT22;24840;47.508;19.376;2023-09-19T07:34:51;19.00;99.90
39095;DHT22;24840;47.508;19.376;2023-09-19T07:37:16;19.00;99.90
39095;DHT22;24840;47.508;19.376;2023-09-19T07:39:42;18.80;99.90
39095;DHT22;24840;47.508;19.376;2023-09-19T07:42:10;18.80;99.90
39095;DHT22;24840;47.508;19.376;2023-09-19T07:44:36;18.80;99.90
39095;DHT22;24840;47.508;19.376;2023-09-19T07:47:03;18.90;99.90
39095;DHT22;24840;47.508;19.376;2023-09-19T07:49:31;19.00;99.90
39095;DHT22;24840;47.508;19.376;2023-09-19T07:51:59;19.10;99.90
39095;DHT22;24840;47.508;19.376;2023-09-19T07:54:26;18.90;99.90
39095;DHT22;24840;47.508;19.376;2023-09-19T07:56:52;19.00;99.90
39095;DHT22;24840;47.508;19.376;2023-09-19T07:59:19;19.00;99.90
39095;DHT22;24840;47.508;19.376;2023-09-19T08:01:45;19.00;99.90
39095;DHT22;24840;47.508;19.376;2023-09-19T08:04:10;19.00;99.90
39095;DHT22;24840;47.508;19.376;2023-09-19T08:06:57;19.00;99.90
39095;DHT22;24840;47.508;19.376;2023-09-19T08:09:29;19.20;99.90
39095;DHT22;24840;47.508;19.376;2023-09-19T08:11:59;19.20;99.90
39095;DHT22;24840;47.508;19.376;2023-09-19T08:14:28;19.30;99.90
39095;DHT22;24840;47.508;19.376;2023-09-19T08:16:57;19.30;99.90
39095;DHT22;24840;47.508;19.376;2023-09-19T08:19:26;19.20;99.90
39095;DHT22;24840;47.508;19.376;2023-09-19T08:21:57;19.30;99.90
39095;DHT22;24840;47.508;19.376;2023-09-19T08:24:43;19.40;99.90
39095;DHT22;24840;47.508;19.376;2023-09-19T08:27:14;19.60;99.90
39095;DHT22;24840;47.508;19.376;2023-09-19T08:29:40;19.70;99.90
39095;DHT22;24840;47.508;19.376;2023-09-19T08:32:05;19.80;99.90
39095;DHT22;24840;47.508;19.376;2023-09-19T08:34:31;19.90;99.90
39095;DHT22;24840;47.508;19.376;2023-09-19T08:36:59;19.80;99.90
39095;DHT22;24840;47.508;19.376;2023-09-19T08:39:26;19.70;99.90
39095;DHT22;24840;47.508;19.376;2023-09-19T08:42:02;19.70;99.90
39095;DHT22;24840;47.508;19.376;2023-09-19T08:44:28;19.40;99.90
39095;DHT22;24840;47.508;19.376;2023-09-19T08:47:26;19.50;99.90
39095;DHT22;24840;47.508;19.376;2023-09-19T08:50:11;19.40;99.90
39095;DHT22;24840;47.508;19.376;2023-09-19T08:52:43;19.30;99.90
39095;DHT22;24840;47.508;19.376;2023-09-19T08:55:14;19.20;99.90
39095;DHT22;24840;47.508;19.376;2023-09-19T08:57:52;19.10;99.90
39095;DHT22;24840;47.508;19.376;2023-09-19T09:00:19;19.20;99.90
39095;DHT22;24840;47.508;19.376;2023-09-19T09:02:47;19.20;99.90
39095;DHT22;24840;47.508;19.376;2023-09-19T09:05:16;19.20;99.90
39095;DHT22;24840;47.508;19.376;2023-09-19T09:07:51;19.10;99.90
39095;DHT22;24840;47.508;19.376;2023-09-19T09:10:18;19.00;99.90
39095;DHT22;24840;47.508;19.376;2023-09-19T09:12:53;19.10;99.90
39095;DHT22;24840;47.508;19.376;2023-09-19T09:15:24;19.00;99.90
39095;DHT22;24840;47.508;19.376;2023-09-19T09:17:51;18.90;99.90
39095;DHT22;24840;47.508;19.376;2023-09-19T09:20:19;18.90;99.90
39095;DHT22;24840;47.508;19.376;2023-09-19T09:22:52;18.90;99.90
39095;DHT22;24840;47.508;19.376;2023-09-19T09:25:19;19.00;99.90
39095;DHT22;24840;47.508;19.376;2023-09-19T09:28:01;19.00;99.90
39095;DHT22;24840;47.508;19.376;2023-09-19T09:30:37;19.00;99.90
39095;DHT22;24840;47.508;19.376;2023-09-19T09:33:13;19.00;99.90
39095;DHT22;24840;47.508;19.376;2023-09-19T09:36:07;19.20;99.90
39095;DHT22;24840;47.508;19.376;2023-09-19T09:38:45;19.50;99.90
39095;DHT22;24840;47.508;19.376;2023-09-19T09:41:12;19.50;99.90
39095;DHT22;24840;47.508;19.376;2023-09-19T09:43:42;19.60;99.90
39095;DHT22;24840;47.508;19.376;2023-09-19T09:48:45;19.90;99.90
39095;DHT22;24840;47.508;19.376;2023-09-19T09:51:31;20.20;99.90
39095;DHT22;24840;47.508;19.376;2023-09-19T09:54:11;20.80;99.90
39095;DHT22;24840;47.508;19.376;2023-09-19T09:57:01;21.40;99.90
39095;DHT22;24840;47.508;19.376;2023-09-19T09:59:51;21.40;99.90
39095;DHT22;24840;47.508;19.376;2023-09-19T10:02:20;21.40;99.90
39095;DHT22;24840;47.508;19.376;2023-09-19T10:04:54;21.00;99.90
39095;DHT22;24840;47.508;19.376;2023-09-19T10:07:41;20.90;99.90
39095;DHT22;24840;47.508;19.376;2023-09-19T10:10:13;20.90;99.90
39095;DHT22;24840;47.508;19.376;2023-09-19T10:12:47;20.70;99.90
39095;DHT22;24840;47.508;19.376;2023-09-19T10:15:18;20.80;99.90
39095;DHT22;24840;47.508;19.376;2023-09-19T10:17:47;20.90;99.90
39095;DHT22;24840;47.508;19.376;2023-09-19T10:20:14;20.90;99.90
39095;DHT22;24840;47.508;19.376;2023-09-19T10:23:02;21.30;99.90
39095;DHT22;24840;47.508;19.376;2023-09-19T10:25:29;21.60;99.90
39095;DHT22;24840;47.508;19.376;2023-09-19T10:28:00;21.40;99.90
39095;DHT22;24840;47.508;19.376;2023-09-19T10:30:31;21.10;99.90
39095;DHT22;24840;47.508;19.376;2023-09-19T10:33:02;21.30;99.90
39095;DHT22;24840;47.508;19.376;2023-09-19T10:35:29;21.30;99.90
39095;DHT22;24840;47.508;19.376;2023-09-19T10:37:57;21.40;99.90
39095;DHT22;24840;47.508;19.376;2023-09-19T10:40:26;21.80;99.90
39095;DHT22;24840;47.508;19.376;2023-09-19T10:43:06;21.60;99.90
39095;DHT22;24840;47.508;19.376;2023-09-19T10:45:35;21.50;99.90
39095;DHT22;24840;47.508;19.376;2023-09-19T10:48:04;21.60;99.90
39095;DHT22;24840;47.508;19.376;2023-09-19T10:50:37;21.70;99.90
39095;DHT22;24840;47.508;19.376;2023-09-19T10:53:07;21.40;99.90
39095;DHT22;24840;47.508;19.376;2023-09-19T10:55:37;21.20;99.90
39095;DHT22;24840;47.508;19.376;2023-09-19T10:58:05;21.00;99.90
39095;DHT22;24840;47.508;19.376;2023-09-19T11:01:06;21.10;99.90
39095;DHT22;24840;47.508;19.376;2023-09-19T11:03:38;21.00;99.90
39095;DHT22;24840;47.508;19.376;2023-09-19T11:06:17;20.90;99.90
39095;DHT22;24840;47.508;19.376;2023-09-19T11:33:28;21.30;99.90
39095;DHT22;24840;47.508;19.376;2023-09-19T11:36:09;21.40;99.90
39095;DHT22;24840;47.508;19.376;2023-09-19T11:39:01;21.70;99.90
39095;DHT22;24840;47.508;19.376;2023-09-19T11:41:37;21.90;99.90
39095;DHT22;24840;47.508;19.376;2023-09-19T11:49:18;21.90;99.90
39095;DHT22;24840;47.508;19.376;2023-09-19T11:51:50;22.00;99.90
39095;DHT22;24840;47.508;19.376;2023-09-19T11:54:20;22.40;99.90
39095;DHT22;24840;47.508;19.376;2023-09-19T11:56:51;22.90;99.90
39095;DHT22;24840;47.508;19.376;2023-09-19T11:59:21;23.50;99.90
39095;DHT22;24840;47.508;19.376;2023-09-19T14:09:55;27.20;85.50
39095;DHT22;24840;47.508;19.376;2023-09-19T14:12:21;25.80;88.30
39095;DHT22;24840;47.508;19.376;2023-09-19T14:14:47;25.90;89.00
39095;DHT22;24840;47.508;19.376;2023-09-19T14:17:12;26.20;89.20
39095;DHT22;24840;47.508;19.376;2023-09-19T14:19:41;26.40;88.20
39095;DHT22;24840;47.508;19.376;2023-09-19T14:22:09;26.00;88.20
39095;DHT22;24840;47.508;19.376;2023-09-19T14:24:35;26.50;86.90
39095;DHT22;24840;47.508;19.376;2023-09-19T14:27:01;26.40;88.70
39095;DHT22;24840;47.508;19.376;2023-09-19T14:29:30;25.60;88.20
39095;DHT22;24840;47.508;19.376;2023-09-19T14:31:56;24.70;89.40
39095;DHT22;24840;47.508;19.376;2023-09-19T14:34:23;24.60;90.90
39095;DHT22;24840;47.508;19.376;2023-09-19T14:36:48;24.90;90.30
39095;DHT22;24840;47.508;19.376;2023-09-19T14:39:14;25.10;89.40
39095;DHT22;24840;47.508;19.376;2023-09-19T14:41:40;25.70;89.40
39095;DHT22;24840;47.508;19.376;2023-09-19T14:44:06;26.00;87.20
39095;DHT22;24840;47.508;19.376;2023-09-19T14:46:31;25.60;88.70
39095;DHT22;24840;47.508;19.376;2023-09-19T14:48:57;25.80;87.60
39095;DHT22;24840;47.508;19.376;2023-09-19T14:51:29;25.60;87.30
39095;DHT22;24840;47.508;19.376;2023-09-19T14:53:55;25.60;88.00
39095;DHT22;24840;47.508;19.376;2023-09-19T14:56:22;25.50;89.30
39095;DHT22;24840;47.508;19.376;2023-09-19T14:58:51;25.70;88.80
39095;DHT22;24840;47.508;19.376;2023-09-19T15:01:16;25.60;89.40
39095;DHT22;24840;47.508;19.376;2023-09-19T15:03:43;25.70;89.50
39095;DHT22;24840;47.508;19.376;2023-09-19T15:06:10;25.70;87.70
39095;DHT22;24840;47.508;19.376;2023-09-19T15:08:40;25.40;88.90
39095;DHT22;24840;47.508;19.376;2023-09-19T15:11:11;25.60;89.00
39095;DHT22;24840;47.508;19.376;2023-09-19T15:13:43;25.70;89.00
39095;DHT22;24840;47.508;19.376;2023-09-19T15:16:12;25.50;88.30
39095;DHT22;24840;47.508;19.376;2023-09-19T15:18:40;25.00;88.40
39095;DHT22;24840;47.508;19.376;2023-09-19T15:21:08;25.00;89.30
39095;DHT22;24840;47.508;19.376;2023-09-19T15:23:35;24.70;90.10
39095;DHT22;24840;47.508;19.376;2023-09-19T15:26:03;24.40;90.50
39095;DHT22;24840;47.508;19.376;2023-09-19T15:28:30;24.20;90.20
39095;DHT22;24840;47.508;19.376;2023-09-19T15:31:11;24.40;91.10
39095;DHT22;24840;47.508;19.376;2023-09-19T15:33:37;24.30;90.70
39095;DHT22;24840;47.508;19.376;2023-09-19T15:36:08;24.10;91.40
39095;DHT22;24840;47.508;19.376;2023-09-19T15:39:02;23.70;91.50
39095;DHT22;24840;47.508;19.376;2023-09-19T15:41:31;23.80;91.90
39095;DHT22;24840;47.508;19.376;2023-09-19T15:43:58;23.80;92.10
39095;DHT22;24840;47.508;19.376;2023-09-19T15:46:31;23.70;92.10
39095;DHT22;24840;47.508;19.376;2023-09-19T15:49:00;23.50;92.00
39095;DHT22;24840;47.508;19.376;2023-09-19T15:51:27;23.40;92.50
39095;DHT22;24840;47.508;19.376;2023-09-19T15:53:53;23.40;92.60
39095;DHT22;24840;47.508;19.376;2023-09-19T15:56:21;23.30;93.10
39095;DHT22;24840;47.508;19.376;2023-09-19T15:58:49;23.20;93.00
39095;DHT22;24840;47.508;19.376;2023-09-19T16:01:16;22.90;93.70
39095;DHT22;24840;47.508;19.376;2023-09-19T16:03:46;22.80;93.90
39095;DHT22;24840;47.508;19.376;2023-09-19T16:06:14;22.80;93.70
39095;DHT22;24840;47.508;19.376;2023-09-19T16:08:44;22.70;94.40
39095;DHT22;24840;47.508;19.376;2023-09-19T16:11:11;22.60;94.60
39095;DHT22;24840;47.508;19.376;2023-09-19T16:13:40;22.30;95.00
39095;DHT22;24840;47.508;19.376;2023-09-19T16:16:08;22.40;94.40
39095;DHT22;24840;47.508;19.376;2023-09-19T16:18:34;22.30;94.50
39095;DHT22;24840;47.508;19.376;2023-09-19T16:21:03;22.20;94.80
39095;DHT22;24840;47.508;19.376;2023-09-19T16:23:32;22.10;94.30
39095;DHT22;24840;47.508;19.376;2023-09-19T16:26:05;22.00;94.80
39095;DHT22;24840;47.508;19.376;2023-09-19T16:28:32;21.90;95.00
39095;DHT22;24840;47.508;19.376;2023-09-19T16:31:00;21.90;94.90
39095;DHT22;24840;47.508;19.376;2023-09-19T16:33:28;21.80;95.60
39095;DHT22;24840;47.508;19.376;2023-09-19T16:35:54;21.80;95.50
39095;DHT22;24840;47.508;19.376;2023-09-19T16:38:20;21.70;95.40
39095;DHT22;24840;47.508;19.376;2023-09-19T16:40:56;21.60;95.50
39095;DHT22;24840;47.508;19.376;2023-09-19T16:43:22;21.60;95.60
39095;DHT22;24840;47.508;19.376;2023-09-19T16:45:55;21.60;95.70
39095;DHT22;24840;47.508;19.376;2023-09-19T16:48:25;21.10;96.50
39095;DHT22;24840;47.508;19.376;2023-09-19T16:50:52;21.20;96.50
39095;DHT22;24840;47.508;19.376;2023-09-19T16:53:19;21.30;96.30
39095;DHT22;24840;47.508;19.376;2023-09-19T16:55:46;21.20;96.60
39095;DHT22;24840;47.508;19.376;2023-09-19T16:58:16;21.10;96.80
39095;DHT22;24840;47.508;19.376;2023-09-19T17:00:43;20.90;97.30
39095;DHT22;24840;47.508;19.376;2023-09-19T17:03:10;20.90;97.10
39095;DHT22;24840;47.508;19.376;2023-09-19T17:05:38;20.80;97.50
39095;DHT22;24840;47.508;19.376;2023-09-19T17:08:08;20.70;97.70
39095;DHT22;24840;47.508;19.376;2023-09-19T17:10:35;20.60;98.20
39095;DHT22;24840;47.508;19.376;2023-09-19T17:13:02;20.50;98.40
39095;DHT22;24840;47.508;19.376;2023-09-19T17:15:31;20.40;98.50
39095;DHT22;24840;47.508;19.376;2023-09-19T17:17:57;20.30;98.90
39095;DHT22;24840;47.508;19.376;2023-09-19T17:20:24;20.30;98.80
39095;DHT22;24840;47.508;19.376;2023-09-19T17:22:50;20.30;99.00
39095;DHT22;24840;47.508;19.376;2023-09-19T17:25:16;20.10;99.30
39095;DHT22;24840;47.508;19.376;2023-09-19T17:27:42;20.00;99.50
39095;DHT22;24840;47.508;19.376;2023-09-19T17:30:15;19.90;99.60
39095;DHT22;24840;47.508;19.376;2023-09-19T17:32:41;19.80;99.80
39095;DHT22;24840;47.508;19.376;2023-09-19T17:35:08;19.80;99.80
39095;DHT22;24840;47.508;19.376;2023-09-19T17:37:34;19.60;99.90
39095;DHT22;24840;47.508;19.376;2023-09-19T17:40:00;19.60;99.90
39095;DHT22;24840;47.508;19.376;2023-09-19T17:42:30;19.70;99.90
39095;DHT22;24840;47.508;19.376;2023-09-19T17:44:56;19.60;99.90
39095;DHT22;24840;47.508;19.376;2023-09-19T17:47:21;19.40;99.90
39095;DHT22;24840;47.508;19.376;2023-09-19T17:49:53;19.30;99.90
39095;DHT22;24840;47.508;19.376;2023-09-19T17:52:19;19.20;99.90
39095;DHT22;24840;47.508;19.376;2023-09-19T17:54:45;19.10;99.90
39095;DHT22;24840;47.508;19.376;2023-09-19T17:57:11;19.30;99.90
39095;DHT22;24840;47.508;19.376;2023-09-19T17:59:36;19.30;99.90
39095;DHT22;24840;47.508;19.376;2023-09-19T18:02:02;19.20;99.90
39095;DHT22;24840;47.508;19.376;2023-09-19T18:04:28;19.00;99.90
39095;DHT22;24840;47.508;19.376;2023-09-19T18:06:57;18.80;99.90
39095;DHT22;24840;47.508;19.376;2023-09-19T18:09:23;18.80;99.90
39095;DHT22;24840;47.508;19.376;2023-09-19T18:11:49;18.60;99.90
39095;DHT22;24840;47.508;19.376;2023-09-19T18:14:14;18.60;99.90
39095;DHT22;24840;47.508;19.376;2023-09-19T18:16:44;18.60;99.90
39095;DHT22;24840;47.508;19.376;2023-09-19T18:19:10;18.40;99.90
39095;DHT22;24840;47.508;19.376;2023-09-19T18:21:36;18.20;99.90
39095;DHT22;24840;47.508;19.376;2023-09-19T18:24:02;18.30;99.90
39095;DHT22;24840;47.508;19.376;2023-09-19T18:26:35;18.20;99.90
39095;DHT22;24840;47.508;19.376;2023-09-19T18:29:04;18.20;99.90